Paradise, Texas
Current Conditions -  °F | °C
As of 4:15 PM on Tuesday 25 Nov 2014 (Local Time) from KXBP Reporting Station
Clear Clear  
Wind Chill: 60°   Ceiling: Unl
Heat Index: 60°   Visibility: 10mi
Dew Point: 31°   Wind: 7mph
Humidity: 34%   Direction: 270°W
Pressure: 30.18"   Gusts: NA
Location:  33.15°N, 97.69°W
Report Text: KXBP 252215Z AUTO 27006KT 10SM CLR 16/00 A3018 RMK AO2 T01551005
Loading
Personal Weather Stations






























Interactive Weather Map New forecast layout! Learn more

10-Day Weather Forecast

Advertisements
Track Severe Weather on mobile